Time;durP1;ratioP1;P1;durP2;ratioP2;P2;SDS_P1;SDS_P2;PMS_P1;PMS_P2;Temp;Humidity;BMP_temperature;BMP_pressure;BME280_temperature;BME280_humidity;BME280_pressure;Samples;Min_cycle;Max_cycle;Signal;HPM_P1;HPM_P2
2022/12/04 00:00:07;;;;;;;16.95;10.60;;;9.50;99.90;;;;;;5111156;28;20121;-46
2022/12/04 00:02:33;;;;;;;20.00;11.82;;;9.30;99.90;;;;;;5111447;28;20024;-48
2022/12/04 00:05:00;;;;;;;17.17;10.52;;;9.80;99.90;;;;;;5111395;28;20536;-47
2022/12/04 00:07:25;;;;;;;18.27;10.93;;;11.30;99.10;;;;;;5111414;28;20499;-47
2022/12/04 00:09:51;;;;;;;16.70;10.55;;;13.00;96.90;;;;;;5110984;28;20020;-52
2022/12/04 00:12:16;;;;;;;18.70;10.07;;;13.50;95.20;;;;;;5111407;28;20028;-47
2022/12/04 00:14:42;;;;;;;15.52;9.98;;;13.00;95.40;;;;;;5111355;28;20019;-47
2022/12/04 00:17:08;;;;;;;20.60;11.98;;;12.30;95.80;;;;;;5111339;28;20028;-47
2022/12/04 00:19:33;;;;;;;18.13;11.10;;;11.60;96.60;;;;;;5110694;28;20031;-52
2022/12/04 00:21:59;;;;;;;18.88;11.15;;;11.10;97.50;;;;;;5111161;28;20027;-51
2022/12/04 00:24:24;;;;;;;18.98;11.63;;;10.50;98.30;;;;;;5111390;28;20020;-47
2022/12/04 00:26:51;;;;;;;17.92;10.80;;;10.10;99.00;;;;;;5111236;28;20047;-47
2022/12/04 00:29:17;;;;;;;20.13;12.10;;;9.70;99.50;;;;;;5110649;28;20508;-49
2022/12/04 00:31:44;;;;;;;19.25;12.23;;;9.50;99.90;;;;;;5111144;28;20024;-47
2022/12/04 00:34:10;;;;;;;19.70;11.75;;;9.60;99.90;;;;;;5111192;28;20031;-48
2022/12/04 00:36:36;;;;;;;21.45;11.35;;;10.90;99.60;;;;;;5111137;28;20469;-47
2022/12/04 00:39:02;;;;;;;16.08;10.48;;;12.60;97.40;;;;;;5110518;28;20024;-45
2022/12/04 00:41:31;;;;;;;17.95;10.77;;;13.60;95.40;;;;;;5111145;28;20442;-47
2022/12/04 00:43:57;;;;;;;17.60;11.30;;;13.30;94.80;;;;;;5111011;28;20055;-51
2022/12/04 00:46:23;;;;;;;18.80;11.98;;;12.60;95.40;;;;;;5111005;28;20067;-51
2022/12/04 00:48:49;;;;;;;17.70;11.18;;;11.90;96.30;;;;;;5110407;28;20051;-47
2022/12/04 00:51:17;;;;;;;18.30;10.90;;;11.20;97.20;;;;;;5111098;28;20032;-50
2022/12/04 00:53:44;;;;;;;18.92;11.80;;;10.60;98.00;;;;;;5111023;28;20015;-48
2022/12/04 00:56:13;;;;;;;17.98;12.00;;;10.20;98.70;;;;;;5110895;28;20024;-47
2022/12/04 00:58:40;;;;;;;16.35;10.30;;;9.80;99.30;;;;;;5110283;28;20043;-50
2022/12/04 01:01:17;;;;;;;19.15;12.13;;;9.50;99.80;;;;;;5110934;28;20024;-48
2022/12/04 01:03:43;;;;;;;20.50;11.57;;;9.40;99.90;;;;;;5112339;28;20063;-47
2022/12/04 01:06:24;;;;;;;18.92;11.18;;;10.50;99.90;;;;;;5114678;28;20493;-47
2022/12/04 01:08:52;;;;;;;19.73;11.48;;;12.30;97.70;;;;;;5114069;28;20067;-48
2022/12/04 01:11:19;;;;;;;17.60;11.15;;;13.40;95.50;;;;;;5114754;28;20026;-47
2022/12/04 01:13:45;;;;;;;19.35;11.45;;;13.30;94.90;;;;;;5114649;28;20030;-47
2022/12/04 01:16:37;;;;;;;16.52;11.38;;;12.60;95.30;;;;;;5114541;28;20020;-47
2022/12/04 01:19:06;;;;;;;19.02;11.80;;;11.80;96.30;;;;;;5112124;28;20039;-48
2022/12/04 01:21:32;;;;;;;18.70;12.20;;;11.20;97.10;;;;;;5114902;28;20030;-47
2022/12/04 01:23:58;;;;;;;17.98;11.25;;;10.60;98.00;;;;;;5114529;28;20023;-47
2022/12/04 01:26:24;;;;;;;17.63;11.73;;;10.20;98.70;;;;;;5114436;28;20035;-49
2022/12/04 01:28:50;;;;;;;20.20;12.80;;;9.80;99.30;;;;;;5113777;28;20024;-47
2022/12/04 01:31:18;;;;;;;19.55;12.00;;;9.50;99.70;;;;;;5114300;28;20019;-47
2022/12/04 01:33:45;;;;;;;21.83;13.02;;;9.30;99.90;;;;;;5112889;28;20031;-46
2022/12/04 01:36:13;;;;;;;20.80;12.95;;;9.20;99.90;;;;;;5113985;28;20457;-46
2022/12/04 01:38:39;;;;;;;19.52;12.68;;;9.20;99.90;;;;;;5113643;28;20049;-49
2022/12/04 01:41:07;;;;;;;20.42;11.43;;;10.40;99.90;;;;;;5114027;28;20463;-47
2022/12/04 01:43:35;;;;;;;17.63;11.05;;;12.20;98.00;;;;;;5114048;28;20027;-47
2022/12/04 01:46:01;;;;;;;16.42;10.85;;;13.60;95.60;;;;;;5113828;28;20134;-47
2022/12/04 01:48:42;;;;;;;19.63;12.25;;;13.60;94.50;;;;;;5113339;28;20028;-48
2022/12/04 01:51:19;;;;;;;18.75;11.77;;;12.90;94.90;;;;;;5113901;28;20153;-47
2022/12/04 01:53:58;;;;;;;18.65;11.52;;;12.10;95.90;;;;;;5113923;28;20031;-47
2022/12/04 01:56:38;;;;;;;20.00;11.82;;;11.40;96.90;;;;;;5113803;28;20031;-50
2022/12/04 01:59:06;;;;;;;21.48;13.15;;;10.70;97.70;;;;;;5113100;27;20058;-49
2022/12/04 02:01:43;;;;;;;18.15;11.73;;;10.30;98.50;;;;;;5113731;28;20152;-47
2022/12/04 02:04:08;;;;;;;20.05;12.73;;;9.80;99.20;;;;;;5113762;28;20024;-47
2022/12/04 02:06:34;;;;;;;21.83;12.90;;;9.50;99.70;;;;;;5113539;28;20054;-51
2022/12/04 02:09:00;;;;;;;20.58;12.10;;;9.30;99.90;;;;;;5112989;28;20579;-48
2022/12/04 02:11:44;;;;;;;21.60;12.43;;;9.10;99.90;;;;;;5113456;28;20023;-48
2022/12/04 02:14:24;;;;;;;21.10;12.00;;;9.30;99.90;;;;;;5113550;28;20363;-52
2022/12/04 02:16:53;;;;;;;19.75;11.30;;;10.80;99.60;;;;;;5112865;28;20106;-48
2022/12/04 02:19:40;;;;;;;17.10;11.50;;;12.70;97.20;;;;;;5112838;28;20419;-50
2022/12/04 02:22:18;;;;;;;21.42;12.55;;;13.70;94.90;;;;;;5113183;28;20042;-47
2022/12/04 02:24:51;;;;;;;19.17;11.32;;;13.30;94.50;;;;;;5113246;28;20027;-48
2022/12/04 02:27:58;;;;;;;21.33;12.73;;;12.50;95.30;;;;;;5113335;27;20358;-51
2022/12/04 02:30:24;;;;;;;21.27;12.90;;;11.60;96.40;;;;;;5112943;28;20023;-47
2022/12/04 02:33:13;;;;;;;20.02;12.60;;;11.00;97.40;;;;;;5113154;27;20117;-47
2022/12/04 02:36:03;;;;;;;18.95;11.85;;;10.30;98.20;;;;;;5112996;28;20102;-47
2022/12/04 02:38:39;;;;;;;18.70;12.10;;;9.90;99.00;;;;;;5112408;28;20063;-49
2022/12/04 02:41:16;;;;;;;19.17;11.32;;;9.60;99.50;;;;;;5112911;28;20031;-52
2022/12/04 02:43:46;;;;;;;20.70;12.38;;;9.40;99.90;;;;;;5113004;28;20110;-48
2022/12/04 02:46:21;;;;;;;18.42;12.80;;;9.20;99.90;;;;;;5112819;28;20103;-50
2022/12/04 02:48:51;;;;;;;21.63;12.73;;;9.00;99.90;;;;;;5112324;28;20024;-47
2022/12/04 02:51:20;;;;;;;20.13;12.00;;;8.90;99.90;;;;;;5113330;27;20028;-47
2022/12/04 02:53:58;;;;;;;19.98;12.60;;;8.80;99.90;;;;;;5112844;28;20019;-46
2022/12/04 02:56:31;;;;;;;18.73;12.32;;;8.80;99.90;;;;;;5112648;28;20028;-51
2022/12/04 02:59:04;;;;;;;20.33;11.70;;;8.70;99.90;;;;;;5112247;28;20024;-47
2022/12/04 03:01:33;;;;;;;20.48;11.98;;;8.70;99.90;;;;;;5112536;28;20383;-47
2022/12/04 03:04:12;;;;;;;18.02;11.73;;;8.90;99.90;;;;;;5112647;28;20024;-47
2022/12/04 03:06:41;;;;;;;15.82;10.82;;;10.40;99.90;;;;;;5112486;28;20108;-49
2022/12/04 03:09:10;;;;;;;18.23;10.80;;;12.20;97.90;;;;;;5111819;28;20477;-48
2022/12/04 03:11:39;;;;;;;17.70;11.50;;;13.80;95.40;;;;;;5112376;28;20426;-47
2022/12/04 03:14:24;;;;;;;16.55;11.05;;;13.80;94.20;;;;;;5112105;28;20062;-50
2022/12/04 03:16:54;;;;;;;17.17;11.73;;;13.10;94.50;;;;;;5112271;28;20015;-47
2022/12/04 03:19:23;;;;;;;17.95;11.75;;;12.30;95.90;;;;;;5111708;28;20059;-47
2022/12/04 03:21:55;;;;;;;16.90;11.20;;;11.40;96.60;;;;;;5112187;28;20404;-51
2022/12/04 03:24:28;;;;;;;16.35;11.23;;;10.80;97.50;;;;;;5112048;28;20035;-51
2022/12/04 03:27:09;;;;;;;18.75;11.38;;;10.30;98.30;;;;;;5111970;28;20025;-50
2022/12/04 03:29:41;;;;;;;18.10;11.52;;;9.90;99.00;;;;;;5111595;28;20019;-50
2022/12/04 03:32:17;;;;;;;19.95;12.13;;;9.60;99.50;;;;;;5111917;27;20045;-47
2022/12/04 03:35:10;;;;;;;17.10;11.77;;;9.80;99.80;;;;;;5111902;28;20111;-49
2022/12/04 03:37:58;;;;;;;17.20;11.13;;;11.60;98.40;;;;;;5111710;28;20046;-48
2022/12/04 03:40:37;;;;;;;16.30;10.63;;;13.20;95.90;;;;;;5111942;27;20043;-48
2022/12/04 03:43:45;;;;;;;15.02;9.38;;;13.40;94.60;;;;;;5111843;28;20530;-47
2022/12/04 03:46:23;;;;;;;16.60;10.80;;;12.50;95.10;;;;;;5111820;28;20023;-47
2022/12/04 03:48:52;;;;;;;16.10;10.85;;;11.70;96.10;;;;;;5111214;28;20553;-47
2022/12/04 03:51:31;;;;;;;14.82;10.50;;;11.10;97.00;;;;;;5111780;28;20024;-47
2022/12/04 03:54:11;;;;;;;16.90;11.15;;;10.50;97.80;;;;;;5111760;28;20099;-47
2022/12/04 03:56:45;;;;;;;17.30;11.38;;;10.00;98.60;;;;;;5111579;28;20047;-49
2022/12/04 03:59:27;;;;;;;17.38;11.80;;;9.70;99.30;;;;;;5111100;28;20032;-48
2022/12/04 04:01:56;;;;;;;18.02;11.85;;;9.40;99.90;;;;;;5111515;28;20055;-50
2022/12/04 04:04:31;;;;;;;15.55;11.13;;;9.60;99.90;;;;;;5111542;28;20042;-47
2022/12/04 04:07:08;;;;;;;15.60;10.30;;;11.00;99.00;;;;;;5110461;28;20035;-52
2022/12/04 04:09:37;;;;;;;13.82;9.60;;;12.80;96.70;;;;;;5110954;28;20108;-47
2022/12/04 04:12:16;;;;;;;16.35;10.25;;;13.60;94.80;;;;;;5111475;28;20019;-47
2022/12/04 04:26:10;;;;;;;17.23;11.75;;;10.20;98.20;;;;;;5111245;28;20481;-46
2022/12/04 04:28:40;;;;;;;17.20;11.25;;;9.80;98.90;;;;;;5110630;28;20028;-47
2022/12/04 04:31:37;;;;;;;18.85;11.63;;;9.60;99.50;;;;;;5111016;28;20015;-47
2022/12/04 04:34:23;;;;;;;16.60;11.02;;;9.40;99.90;;;;;;5111414;28;20027;-49
2022/12/04 04:37:27;;;;;;;15.85;10.75;;;10.80;99.20;;;;;;5111135;28;20145;-47
2022/12/04 04:39:55;;;;;;;16.75;11.07;;;12.80;96.60;;;;;;5111972;28;20047;-49
2022/12/04 04:42:47;;;;;;;15.88;10.48;;;13.50;94.60;;;;;;5115229;28;20045;-47
2022/12/04 04:45:50;;;;;;;15.82;10.35;;;12.80;94.80;;;;;;5115346;28;20024;-51
2022/12/04 04:48:32;;;;;;;17.60;11.55;;;12.00;95.60;;;;;;5114491;28;20081;-52
2022/12/04 04:51:01;;;;;;;15.85;10.65;;;11.20;96.70;;;;;;5115158;28;20080;-51
2022/12/04 04:53:33;;;;;;;18.75;11.50;;;10.60;97.60;;;;;;5115406;28;20030;-52
2022/12/04 04:55:59;;;;;;;15.98;11.00;;;10.20;98.60;;;;;;5114841;28;20024;-48
2022/12/04 04:58:25;;;;;;;16.20;11.43;;;9.80;98.90;;;;;;5114384;28;20030;-49
2022/12/04 05:01:07;;;;;;;17.05;10.98;;;9.50;99.40;;;;;;5114927;28;20073;-47
2022/12/04 05:03:33;;;;;;;14.65;10.27;;;9.30;99.80;;;;;;5114880;28;20423;-47
2022/12/04 05:06:00;;;;;;;16.88;10.38;;;10.40;99.50;;;;;;5114697;28;20115;-51
2022/12/04 05:08:25;;;;;;;14.05;9.90;;;12.00;97.60;;;;;;5114624;28;20028;-50
2022/12/04 05:10:51;;;;;;;14.48;9.60;;;13.40;95.30;;;;;;5114705;28;20030;-47
2022/12/04 05:13:18;;;;;;;14.52;9.60;;;13.40;94.40;;;;;;5114707;28;20012;-47
2022/12/04 05:15:54;;;;;;;14.52;10.05;;;12.70;94.70;;;;;;5114720;28;20115;-48
2022/12/04 05:18:19;;;;;;;14.40;9.98;;;12.00;95.60;;;;;;5114064;28;20019;-47
2022/12/04 05:20:45;;;;;;;16.42;10.70;;;11.30;96.50;;;;;;5114332;28;20023;-48
2022/12/04 05:23:10;;;;;;;15.25;10.55;;;10.70;97.40;;;;;;5114335;28;20511;-48
2022/12/04 05:25:36;;;;;;;15.43;10.00;;;10.20;98.20;;;;;;5114442;27;20030;-49
2022/12/04 05:28:01;;;;;;;15.48;10.55;;;9.80;98.70;;;;;;5113764;28;20479;-47
2022/12/04 05:30:27;;;;;;;16.08;10.73;;;9.60;99.30;;;;;;5114359;28;20055;-49
2022/12/04 05:32:53;;;;;;;13.48;9.73;;;9.30;99.70;;;;;;5114276;28;20020;-47
2022/12/04 05:35:18;;;;;;;13.45;9.27;;;9.90;99.80;;;;;;5114224;28;20094;-49
2022/12/04 05:37:44;;;;;;;16.33;10.13;;;11.50;98.20;;;;;;5113883;28;20031;-51
2022/12/04 05:40:10;;;;;;;13.48;8.77;;;13.20;95.90;;;;;;5113754;28;20161;-47
2022/12/04 05:42:36;;;;;;;12.57;8.90;;;13.50;94.40;;;;;;5114435;28;20055;-47
2022/12/04 05:45:02;;;;;;;13.02;8.95;;;13.00;94.50;;;;;;5114029;28;20106;-47
2022/12/04 05:47:27;;;;;;;13.05;8.52;;;12.30;95.20;;;;;;5113798;28;20028;-48
2022/12/04 05:49:53;;;;;;;14.65;9.88;;;11.60;96.10;;;;;;5112355;28;20469;-48
2022/12/04 05:52:19;;;;;;;14.57;9.80;;;10.90;97.00;;;;;;5113804;27;20453;-47
2022/12/04 05:54:44;;;;;;;16.17;9.32;;;10.40;97.80;;;;;;5114024;28;20028;-48
2022/12/04 05:57:10;;;;;;;13.93;9.13;;;10.00;98.50;;;;;;5113595;28;20026;-48
2022/12/04 05:59:36;;;;;;;13.98;9.30;;;9.60;99.00;;;;;;5113233;28;20051;-48
2022/12/04 06:02:01;;;;;;;13.43;9.23;;;9.40;99.50;;;;;;5113644;28;20134;-50
2022/12/04 06:04:27;;;;;;;13.35;9.00;;;9.70;99.80;;;;;;5113668;28;20052;-47
2022/12/04 06:06:53;;;;;;;13.65;9.55;;;11.10;98.70;;;;;;5113427;28;20096;-49
2022/12/04 06:09:19;;;;;;;12.40;8.32;;;12.80;96.50;;;;;;5113159;28;20035;-47
2022/12/04 06:11:45;;;;;;;13.60;8.65;;;13.40;94.60;;;;;;5113737;27;20023;-47
2022/12/04 06:14:14;;;;;;;14.88;9.07;;;13.10;94.40;;;;;;5113522;28;20380;-47
2022/12/04 06:16:42;;;;;;;13.60;8.88;;;12.40;95.00;;;;;;5113429;28;20056;-47
2022/12/04 06:19:15;;;;;;;14.68;8.88;;;11.60;96.00;;;;;;5113370;28;20119;-50
2022/12/04 06:21:42;;;;;;;13.10;9.10;;;11.00;96.90;;;;;;5113267;28;20032;-48
2022/12/04 06:24:14;;;;;;;14.18;9.18;;;10.40;97.60;;;;;;5113282;28;20051;-47
2022/12/04 06:26:40;;;;;;;14.57;9.15;;;10.00;98.40;;;;;;5113191;28;20020;-47
2022/12/04 06:29:05;;;;;;;14.77;9.25;;;9.60;99.00;;;;;;5112663;28;20465;-46
2022/12/04 06:31:32;;;;;;;13.15;8.35;;;9.40;99.50;;;;;;5113279;28;20024;-47
2022/12/04 06:33:58;;;;;;;12.05;8.68;;;9.40;99.90;;;;;;5113045;28;20015;-47
2022/12/04 06:36:24;;;;;;;13.30;8.07;;;10.70;99.00;;;;;;5112975;28;20036;-49
2022/12/04 06:38:51;;;;;;;12.63;7.97;;;12.40;97.00;;;;;;5112547;28;20031;-48
2022/12/04 06:41:19;;;;;;;11.52;8.02;;;13.40;94.90;;;;;;5112871;28;20085;-47
2022/12/04 06:43:44;;;;;;;13.00;8.65;;;13.30;94.30;;;;;;5112963;28;20114;-48
2022/12/04 06:46:13;;;;;;;14.30;8.48;;;12.60;94.80;;;;;;5113127;28;20536;-47
2022/12/04 06:48:39;;;;;;;11.45;7.65;;;11.80;95.60;;;;;;5112110;28;20396;-47
2022/12/04 06:51:11;;;;;;;12.40;8.57;;;11.10;96.60;;;;;;5112808;28;20027;-47
2022/12/04 06:53:37;;;;;;;11.25;8.10;;;10.60;97.40;;;;;;5112822;28;20022;-47
2022/12/04 06:56:06;;;;;;;13.65;8.27;;;10.10;98.20;;;;;;5112829;28;20376;-47
2022/12/04 06:58:32;;;;;;;12.70;8.50;;;9.80;98.80;;;;;;5112154;28;20023;-48
2022/12/04 07:00:58;;;;;;;13.95;8.85;;;9.50;99.30;;;;;;5112288;28;20038;-52
2022/12/04 07:03:24;;;;;;;13.82;9.18;;;9.20;99.60;;;;;;5112488;27;20031;-51
2022/12/04 07:05:50;;;;;;;12.90;9.00;;;9.10;99.90;;;;;;5112432;28;20043;-52
2022/12/04 07:08:16;;;;;;;13.82;8.20;;;9.00;99.90;;;;;;5111873;27;20115;-53
2022/12/04 07:10:42;;;;;;;12.98;8.75;;;8.80;99.90;;;;;;5112309;28;20532;-53
2022/12/04 07:13:09;;;;;;;12.65;8.32;;;8.80;99.90;;;;;;5111019;28;20127;-47
2022/12/04 07:15:36;;;;;;;13.10;8.15;;;8.70;99.90;;;;;;5112223;28;20063;-48
2022/12/04 07:18:02;;;;;;;12.43;8.43;;;8.60;99.90;;;;;;5111652;28;20019;-57
2022/12/04 07:20:29;;;;;;;12.85;8.45;;;8.50;99.90;;;;;;5112198;28;20473;-47
2022/12/04 07:22:55;;;;;;;13.23;8.35;;;8.50;99.90;;;;;;5112374;28;20447;-47
2022/12/04 07:25:21;;;;;;;14.55;8.90;;;8.50;99.90;;;;;;5112078;28;20038;-52
2022/12/04 07:27:46;;;;;;;13.05;8.45;;;8.50;99.90;;;;;;5111791;28;20036;-49
2022/12/04 07:30:12;;;;;;;12.25;8.05;;;8.50;99.90;;;;;;5111679;28;20095;-47
2022/12/04 07:32:38;;;;;;;13.60;8.90;;;8.40;99.90;;;;;;5110731;28;20765;-47
2022/12/04 07:35:04;;;;;;;12.60;8.20;;;8.40;99.90;;;;;;5112111;28;20499;-47
2022/12/04 07:37:30;;;;;;;12.32;7.68;;;8.40;99.90;;;;;;5111748;28;20047;-47
2022/12/04 07:39:56;;;;;;;11.48;7.68;;;8.40;99.90;;;;;;5111516;28;20031;-49
2022/12/04 07:42:22;;;;;;;14.93;8.05;;;8.40;99.90;;;;;;5111875;28;20027;-49
2022/12/04 07:44:48;;;;;;;12.35;8.30;;;8.40;99.90;;;;;;5111800;28;20541;-50
2022/12/04 07:47:13;;;;;;;14.15;8.93;;;8.40;99.90;;;;;;5110544;28;20028;-47
2022/12/04 07:49:39;;;;;;;13.80;8.40;;;8.40;99.90;;;;;;5109904;28;20488;-47
2022/12/04 07:52:05;;;;;;;14.27;8.40;;;8.40;99.90;;;;;;5111805;28;20362;-47
2022/12/04 07:54:31;;;;;;;13.40;8.90;;;8.40;99.90;;;;;;5111766;28;20046;-47
2022/12/04 07:56:57;;;;;;;12.68;7.35;;;8.40;99.90;;;;;;5111619;28;20434;-47
2022/12/04 07:59:23;;;;;;;12.65;8.32;;;8.30;99.90;;;;;;5110971;28;20099;-47
2022/12/04 08:01:48;;;;;;;12.73;8.65;;;8.30;99.90;;;;;;5111551;28;20023;-49
2022/12/04 08:04:14;;;;;;;14.70;8.30;;;8.40;99.90;;;;;;5111540;28;20473;-47
2022/12/04 08:06:40;;;;;;;11.00;7.43;;;8.30;99.90;;;;;;5111449;28;20035;-49
2022/12/04 08:09:06;;;;;;;12.48;8.05;;;8.40;99.90;;;;;;5110829;28;20122;-47
2022/12/04 08:11:32;;;;;;;14.20;8.75;;;8.30;99.90;;;;;;5111498;28;20501;-47
2022/12/04 08:14:04;;;;;;;14.40;8.35;;;8.30;99.90;;;;;;5110707;28;20024;-47
2022/12/04 08:16:31;;;;;;;13.32;8.32;;;8.30;99.90;;;;;;5111403;28;20503;-51
2022/12/04 08:18:57;;;;;;;13.75;8.02;;;8.30;99.90;;;;;;5110907;28;20030;-51
2022/12/04 08:21:26;;;;;;;12.82;8.60;;;8.30;99.90;;;;;;5110379;28;20294;-50
2022/12/04 08:23:53;;;;;;;14.68;8.88;;;8.30;99.90;;;;;;5111347;28;20095;-50
2022/12/04 08:26:21;;;;;;;12.15;8.15;;;8.30;99.90;;;;;;5111280;28;20308;-52
2022/12/04 08:28:48;;;;;;;14.18;9.10;;;8.30;99.90;;;;;;5110619;28;20032;-49
2022/12/04 08:31:18;;;;;;;14.43;8.98;;;8.30;99.90;;;;;;5111839;28;20126;-50
2022/12/04 08:33:46;;;;;;;12.15;8.25;;;8.30;99.90;;;;;;5111372;28;20070;-49
2022/12/04 08:36:15;;;;;;;13.98;9.05;;;8.30;99.90;;;;;;5111218;28;20019;-49
2022/12/04 08:38:41;;;;;;;15.38;8.88;;;8.30;99.90;;;;;;5110577;28;20546;-48
2022/12/04 08:41:10;;;;;;;12.80;8.15;;;8.30;99.90;;;;;;5110974;28;20118;-47
2022/12/04 08:43:36;;;;;;;14.23;8.75;;;8.30;99.90;;;;;;5111153;28;20081;-49
2022/12/04 08:46:04;;;;;;;12.40;7.93;;;8.30;99.90;;;;;;5111104;28;20024;-51
2022/12/04 08:48:31;;;;;;;12.93;8.77;;;8.30;99.90;;;;;;5109192;28;20060;-50
2022/12/04 08:50:57;;;;;;;15.38;9.23;;;8.30;99.90;;;;;;5111095;28;20091;-48
2022/12/04 08:53:23;;;;;;;13.18;8.50;;;8.30;99.90;;;;;;5111123;28;20099;-47
2022/12/04 08:55:49;;;;;;;14.75;8.85;;;8.30;99.90;;;;;;5111362;28;20031;-47
2022/12/04 08:58:15;;;;;;;12.18;8.27;;;8.30;99.90;;;;;;5110442;28;20493;-47
2022/12/04 09:00:41;;;;;;;14.20;8.90;;;8.30;99.90;;;;;;5111401;28;20042;-47
2022/12/04 09:03:11;;;;;;;13.88;8.43;;;8.30;99.90;;;;;;5111053;28;20493;-49
2022/12/04 09:05:37;;;;;;;13.23;8.75;;;8.30;99.90;;;;;;5110107;28;20042;-48
2022/12/04 09:08:03;;;;;;;16.33;8.80;;;8.30;99.90;;;;;;5110320;28;20028;-52
2022/12/04 09:10:28;;;;;;;12.57;8.40;;;8.30;99.90;;;;;;5110827;28;20110;-48
2022/12/04 09:12:54;;;;;;;12.77;7.80;;;8.30;99.90;;;;;;5110879;28;20070;-48
2022/12/04 09:15:20;;;;;;;13.25;8.60;;;8.30;99.90;;;;;;5110947;28;20029;-48
2022/12/04 09:17:45;;;;;;;14.15;9.00;;;8.30;99.90;;;;;;5110910;28;20031;-51
2022/12/04 09:20:11;;;;;;;15.35;8.23;;;8.30;99.90;;;;;;5110605;28;20103;-50
2022/12/04 09:22:37;;;;;;;13.90;8.73;;;8.30;99.90;;;;;;5110705;28;20093;-50
2022/12/04 09:25:04;;;;;;;14.45;8.95;;;8.30;99.90;;;;;;5112567;28;20024;-52
2022/12/04 09:27:34;;;;;;;13.07;7.82;;;8.30;99.90;;;;;;5114238;28;20020;-51
2022/12/04 09:29:59;;;;;;;12.20;8.23;;;8.30;99.90;;;;;;5113983;28;20564;-51
2022/12/04 09:32:25;;;;;;;12.35;8.15;;;8.30;99.90;;;;;;5114301;28;20111;-50
2022/12/04 09:34:51;;;;;;;12.15;8.40;;;8.30;99.90;;;;;;5113277;28;20106;-51
2022/12/04 09:37:17;;;;;;;11.98;8.18;;;8.30;99.90;;;;;;5113966;28;20031;-51
2022/12/04 09:39:44;;;;;;;12.85;8.07;;;8.30;99.90;;;;;;5113617;28;20039;-51
2022/12/04 09:42:13;;;;;;;12.57;8.63;;;8.30;99.90;;;;;;5114298;28;20035;-52
2022/12/04 09:44:52;;;;;;;15.25;8.88;;;8.30;99.90;;;;;;5114080;28;20042;-50
2022/12/04 09:47:30;;;;;;;12.80;8.25;;;8.30;99.90;;;;;;5113921;28;20378;-50
2022/12/04 09:50:00;;;;;;;12.50;8.20;;;8.30;99.90;;;;;;5113406;28;20031;-50
2022/12/04 09:52:47;;;;;;;14.80;8.57;;;8.30;99.90;;;;;;5113961;28;20026;-50
2022/12/04 09:55:28;;;;;;;13.23;7.97;;;8.30;99.90;;;;;;5113868;28;20020;-50
2022/12/04 09:57:58;;;;;;;13.07;8.10;;;8.30;99.90;;;;;;5113498;28;20051;-51
2022/12/04 10:00:24;;;;;;;13.85;7.88;;;8.30;99.90;;;;;;5113526;28;20030;-50
2022/12/04 10:03:04;;;;;;;12.07;7.93;;;8.30;99.90;;;;;;5113777;28;20024;-50
2022/12/04 10:06:07;;;;;;;13.20;8.65;;;8.30;99.90;;;;;;5113661;28;20490;-50
2022/12/04 10:08:36;;;;;;;14.43;8.27;;;8.30;99.90;;;;;;5112965;28;20054;-51
2022/12/04 10:11:15;;;;;;;16.55;8.70;;;8.30;99.90;;;;;;5113586;28;20101;-50
2022/12/04 10:13:56;;;;;;;15.65;8.77;;;8.30;99.90;;;;;;5112299;28;20023;-51
2022/12/04 10:16:46;;;;;;;13.82;8.48;;;8.30;99.90;;;;;;5113523;28;20024;-51
2022/12/04 10:19:30;;;;;;;13.45;8.65;;;8.30;99.90;;;;;;5112905;28;20436;-51
2022/12/04 10:22:14;;;;;;;14.73;8.68;;;8.30;99.90;;;;;;5113342;28;20030;-51
2022/12/04 10:24:51;;;;;;;15.07;8.63;;;8.30;99.90;;;;;;5113425;28;20546;-51
2022/12/04 10:27:28;;;;;;;13.13;8.32;;;8.40;99.90;;;;;;5112022;28;20043;-50
2022/12/04 10:30:06;;;;;;;15.45;8.63;;;8.30;99.90;;;;;;5112907;28;20019;-49
2022/12/04 10:32:33;;;;;;;12.00;7.78;;;8.30;99.90;;;;;;5113175;28;20038;-49
2022/12/04 10:35:19;;;;;;;13.73;8.32;;;8.30;99.90;;;;;;5113039;28;20055;-51
2022/12/04 10:37:47;;;;;;;13.77;7.82;;;8.30;99.90;;;;;;5112168;28;20528;-52
2022/12/04 10:40:19;;;;;;;13.95;8.73;;;8.30;99.90;;;;;;5112578;28;20097;-49
2022/12/04 10:43:13;;;;;;;13.27;8.20;;;8.30;99.90;;;;;;5112444;28;20027;-52
2022/12/04 10:45:39;;;;;;;12.88;8.43;;;8.30;99.90;;;;;;5092555;28;20046;-50
2022/12/04 10:48:11;;;;;;;13.63;8.48;;;8.30;99.90;;;;;;5112289;28;20143;-50
2022/12/04 10:50:36;;;;;;;14.30;8.50;;;8.30;99.90;;;;;;5112829;28;20015;-52
2022/12/04 10:53:03;;;;;;;14.02;8.65;;;8.30;99.90;;;;;;5112886;28;20043;-49
2022/12/04 10:55:35;;;;;;;12.73;7.68;;;8.30;99.90;;;;;;5112767;28;20073;-53
2022/12/04 10:58:01;;;;;;;13.70;8.48;;;8.30;99.90;;;;;;5112108;27;20065;-52
2022/12/04 11:00:33;;;;;;;14.45;8.55;;;8.30;99.90;;;;;;5112548;28;20019;-51
2022/12/04 11:03:07;;;;;;;12.13;8.13;;;8.30;99.90;;;;;;5112659;28;20035;-50
2022/12/04 11:05:44;;;;;;;13.00;8.48;;;8.30;99.90;;;;;;5113066;28;20027;-52
2022/12/04 11:08:20;;;;;;;14.13;8.15;;;8.30;99.90;;;;;;5111895;28;20112;-49
2022/12/04 11:11:00;;;;;;;13.90;8.20;;;8.30;99.90;;;;;;5111052;28;20027;-51
2022/12/04 11:13:26;;;;;;;13.07;8.32;;;8.30;99.90;;;;;;5112467;28;20030;-51
2022/12/04 11:15:54;;;;;;;14.82;8.35;;;8.30;99.90;;;;;;5112288;27;20024;-51
2022/12/04 11:18:31;;;;;;;13.25;8.15;;;8.30;99.90;;;;;;5111727;28;20051;-50
2022/12/04 11:21:03;;;;;;;13.82;8.32;;;8.30;99.90;;;;;;5112173;28;20027;-50
2022/12/04 11:23:34;;;;;;;14.00;8.57;;;8.30;99.90;;;;;;5112429;28;20353;-51
2022/12/04 11:26:00;;;;;;;13.57;8.43;;;8.30;99.90;;;;;;5112367;28;20409;-49
2022/12/04 11:28:31;;;;;;;12.13;7.90;;;8.30;99.90;;;;;;5111586;28;20051;-51
2022/12/04 11:31:00;;;;;;;12.77;8.65;;;8.30;99.90;;;;;;5112191;27;20020;-49
2022/12/04 11:33:37;;;;;;;12.90;8.63;;;8.30;99.90;;;;;;5111975;28;20030;-49
2022/12/04 11:36:27;;;;;;;11.60;8.20;;;8.30;99.90;;;;;;5111922;28;20024;-51
2022/12/04 11:39:22;;;;;;;14.18;8.55;;;8.30;99.90;;;;;;5111251;28;20054;-51
2022/12/04 11:42:05;;;;;;;14.77;8.18;;;8.30;99.90;;;;;;5110440;28;20055;-49
2022/12/04 11:44:33;;;;;;;14.90;8.50;;;8.30;99.90;;;;;;5111867;28;20042;-49
2022/12/04 11:47:02;;;;;;;13.77;8.32;;;8.30;99.90;;;;;;5111655;28;20080;-51
2022/12/04 11:49:30;;;;;;;12.45;8.15;;;8.30;99.90;;;;;;5110331;28;20035;-49
2022/12/04 11:52:19;;;;;;;14.02;8.35;;;8.30;99.90;;;;;;5111649;28;20576;-51
2022/12/04 11:55:11;;;;;;;13.95;9.15;;;8.30;99.90;;;;;;5111741;28;20020;-51
2022/12/04 11:57:58;;;;;;;13.25;8.43;;;8.30;99.90;;;;;;5111503;28;20047;-49
2022/12/04 12:00:26;;;;;;;15.10;8.68;;;8.30;99.90;;;;;;5111358;28;20054;-51
2022/12/04 12:03:36;;;;;;;14.68;8.95;;;8.30;99.90;;;;;;5111578;28;20024;-51
2022/12/04 12:06:11;;;;;;;15.00;8.93;;;8.30;99.90;;;;;;5068468;28;20071;-51
2022/12/04 12:08:51;;;;;;;15.10;9.15;;;8.30;99.90;;;;;;5104465;28;20043;-49
2022/12/04 12:11:33;;;;;;;15.02;9.63;;;8.30;99.90;;;;;;5111716;28;20023;-50
2022/12/04 12:14:18;;;;;;;13.52;8.73;;;8.30;99.90;;;;;;5110141;28;20122;-52
2022/12/04 12:17:22;;;;;;;12.63;8.23;;;8.30;99.90;;;;;;5111514;28;20047;-50
2022/12/04 12:20:21;;;;;;;14.00;8.37;;;8.20;99.90;;;;;;5106181;28;20366;-50
2022/12/04 12:23:24;;;;;;;13.02;8.57;;;8.30;99.90;;;;;;5111465;28;20106;-50
2022/12/04 12:26:09;;;;;;;11.55;7.60;;;8.30;99.90;;;;;;5111380;28;20028;-50
2022/12/04 12:28:56;;;;;;;12.75;8.48;;;8.30;99.90;;;;;;5110847;28;20034;-50
2022/12/04 12:31:53;;;;;;;14.82;9.07;;;8.30;99.90;;;;;;5111296;28;20099;-50
2022/12/04 12:34:36;;;;;;;13.75;8.80;;;8.30;99.90;;;;;;5111484;28;20089;-54
2022/12/04 12:37:11;;;;;;;11.77;7.88;;;8.30;99.90;;;;;;5111410;28;20047;-52
2022/12/04 12:39:54;;;;;;;13.57;8.90;;;8.30;99.90;;;;;;5109321;28;20042;-56
2022/12/04 12:42:25;;;;;;;13.27;8.68;;;8.30;99.90;;;;;;5111355;28;20058;-54
2022/12/04 12:45:17;;;;;;;12.18;7.72;;;8.30;99.90;;;;;;5111356;28;20030;-52
2022/12/04 12:47:48;;;;;;;13.18;8.48;;;8.30;99.90;;;;;;5110935;28;20027;-55
2022/12/04 12:50:18;;;;;;;13.13;8.25;;;8.30;99.90;;;;;;5110813;28;20024;-57
2022/12/04 12:53:00;;;;;;;12.82;7.90;;;8.30;99.90;;;;;;5111245;28;20047;-50
2022/12/04 12:55:39;;;;;;;13.10;8.20;;;8.30;99.90;;;;;;5111108;28;20157;-54
2022/12/04 12:58:28;;;;;;;13.65;8.45;;;8.30;99.90;;;;;;5110572;28;20075;-53
2022/12/04 13:01:11;;;;;;;12.23;7.60;;;8.30;99.90;;;;;;5114284;28;20016;-56
2022/12/04 13:03:58;;;;;;;10.25;7.45;;;8.30;99.90;;;;;;5114931;28;20028;-51
2022/12/04 13:06:31;;;;;;;12.68;8.35;;;8.30;99.90;;;;;;5113591;28;20027;-54
2022/12/04 13:09:24;;;;;;;12.02;7.70;;;8.30;99.90;;;;;;5114133;28;20028;-56
2022/12/04 13:12:05;;;;;;;12.80;7.82;;;8.30;99.90;;;;;;5114855;28;20030;-53
2022/12/04 13:14:30;;;;;;;12.93;8.35;;;8.30;99.90;;;;;;5114801;28;20052;-55
2022/12/04 13:17:04;;;;;;;12.88;7.85;;;8.30;99.90;;;;;;5114622;28;20020;-55